Time;durP1;ratioP1;P1;durP2;ratioP2;P2;SDS_P1;SDS_P2;PMS_P1;PMS_P2;Temp;Humidity;BMP_temperature;BMP_pressure;BME280_temperature;BME280_humidity;BME280_pressure;Samples;Min_cycle;Max_cycle;Signal;HPM_P1;HPM_P2
2022/06/24 00:00:58;;;;;;;3.45;3.00;;;26.10;57.30;;;;;;2076623;28;20393;-69
2022/06/24 00:02:01;;;;;;;7.03;3.25;;;26.10;57.30;;;;;;2075911;28;20030;-69
2022/06/24 00:03:02;;;;;;;4.60;3.28;;;26.10;57.30;;;;;;2078345;28;20108;-69
2022/06/24 00:04:03;;;;;;;3.47;3.03;;;26.10;57.20;;;;;;2079375;28;20013;-69
2022/06/24 00:05:11;;;;;;;3.90;3.20;;;26.10;57.30;;;;;;2079455;28;20113;-69
2022/06/24 00:06:16;;;;;;;5.93;3.58;;;26.10;57.00;;;;;;2076583;28;20128;-69
2022/06/24 00:07:17;;;;;;;4.50;3.47;;;26.10;57.60;;;;;;2077636;28;20052;-69
2022/06/24 00:08:17;;;;;;;3.40;3.10;;;26.10;57.20;;;;;;2079056;28;20021;-69
2022/06/24 00:09:19;;;;;;;5.22;3.33;;;26.10;57.10;;;;;;2077069;28;20030;-69
2022/06/24 00:10:22;;;;;;;3.97;3.10;;;26.10;57.10;;;;;;2080010;28;20026;-69
2022/06/24 00:11:24;;;;;;;4.05;2.85;;;26.10;57.10;;;;;;2077019;28;20052;-69
2022/06/24 00:12:25;;;;;;;3.50;3.20;;;26.10;57.50;;;;;;2077908;28;20033;-69
2022/06/24 00:13:39;;;;;;;4.68;3.38;;;26.10;57.90;;;;;;2076036;28;20120;-69
2022/06/24 00:14:42;;;;;;;3.22;2.92;;;26.20;58.40;;;;;;2076876;28;20416;-69
2022/06/24 00:15:43;;;;;;;3.33;3.08;;;26.10;58.30;;;;;;2078252;28;20018;-69
2022/06/24 00:16:55;;;;;;;3.90;3.15;;;26.10;58.40;;;;;;2077919;28;20026;-69
2022/06/24 00:17:57;;;;;;;3.15;2.88;;;26.20;58.80;;;;;;2076058;28;20080;-69
2022/06/24 00:19:10;;;;;;;6.10;3.15;;;26.20;58.90;;;;;;2078633;28;20469;-69
2022/06/24 00:20:18;;;;;;;5.63;3.10;;;26.20;58.60;;;;;;2075181;28;20022;-69
2022/06/24 00:21:19;;;;;;;4.68;3.22;;;26.20;58.60;;;;;;2077429;28;20041;-69
2022/06/24 00:22:20;;;;;;;3.92;3.13;;;26.20;58.30;;;;;;2079006;28;20056;-69
2022/06/24 00:23:22;;;;;;;5.35;3.10;;;26.20;58.10;;;;;;2079715;28;20013;-69
2022/06/24 00:24:23;;;;;;;4.97;2.83;;;26.20;58.20;;;;;;2078029;28;20026;-69
2022/06/24 00:25:25;;;;;;;3.45;3.15;;;26.20;58.00;;;;;;2075738;28;20025;-69
2022/06/24 00:26:39;;;;;;;4.50;3.15;;;26.20;58.40;;;;;;2078371;28;20038;-69
2022/06/24 00:27:42;;;;;;;4.13;3.17;;;26.20;58.40;;;;;;2078182;28;20039;-69
2022/06/24 00:28:44;;;;;;;3.40;2.85;;;26.20;57.90;;;;;;2078555;28;20025;-69
2022/06/24 00:29:46;;;;;;;4.15;3.17;;;26.20;57.70;;;;;;2078295;28;20429;-69
2022/06/24 00:30:53;;;;;;;4.72;3.30;;;26.10;57.40;;;;;;2079128;28;20029;-69
2022/06/24 00:32:08;;;;;;;3.53;3.22;;;26.20;58.30;;;;;;2077812;28;20022;-69
2022/06/24 00:33:14;;;;;;;3.28;3.03;;;26.10;58.60;;;;;;2079357;28;20044;-69
2022/06/24 00:34:24;;;;;;;3.08;2.72;;;26.10;58.20;;;;;;2076158;28;20033;-69
2022/06/24 00:35:25;;;;;;;4.45;3.10;;;26.10;59.20;;;;;;2078313;28;20362;-70
2022/06/24 00:36:25;;;;;;;3.95;3.17;;;26.10;58.70;;;;;;2077860;28;20072;-70
2022/06/24 00:37:30;;;;;;;6.30;3.15;;;26.10;58.40;;;;;;2080377;28;20111;-70
2022/06/24 00:38:35;;;;;;;3.38;3.08;;;26.10;58.10;;;;;;2078698;28;20029;-69
2022/06/24 00:39:36;;;;;;;3.95;3.50;;;26.10;58.30;;;;;;2078644;28;20476;-69
2022/06/24 00:40:38;;;;;;;3.20;3.00;;;26.10;58.80;;;;;;2079900;28;20609;-69
2022/06/24 00:41:40;;;;;;;4.07;3.25;;;26.10;58.10;;;;;;2077555;28;20563;-69
2022/06/24 00:42:43;;;;;;;5.13;3.88;;;26.10;58.60;;;;;;2077703;28;20044;-69
2022/06/24 00:43:46;;;;;;;3.63;3.28;;;26.10;58.50;;;;;;2077614;28;20029;-69
2022/06/24 00:45:10;;;;;;;4.45;3.15;;;26.10;58.90;;;;;;2078425;28;20049;-69
2022/06/24 00:46:19;;;;;;;4.63;3.20;;;26.10;59.10;;;;;;2077672;28;20140;-69
2022/06/24 00:47:22;;;;;;;3.38;3.08;;;26.10;59.40;;;;;;2080472;28;20402;-69
2022/06/24 00:48:27;;;;;;;3.72;3.25;;;26.10;59.60;;;;;;2076665;28;20159;-69
2022/06/24 00:49:28;;;;;;;4.32;2.92;;;26.00;59.90;;;;;;2077555;28;20062;-69
2022/06/24 00:50:32;;;;;;;4.80;3.33;;;26.10;60.30;;;;;;2078573;28;20029;-69
2022/06/24 00:51:37;;;;;;;3.42;3.17;;;26.00;60.70;;;;;;2077604;28;20045;-69
2022/06/24 00:52:38;;;;;;;5.18;3.30;;;26.00;61.20;;;;;;2077310;28;20025;-69
2022/06/24 00:54:05;;;;;;;4.78;3.47;;;26.00;61.30;;;;;;2078507;28;20113;-69
2022/06/24 00:55:06;;;;;;;3.28;2.97;;;26.00;60.30;;;;;;2075201;28;20017;-69
2022/06/24 00:56:10;;;;;;;3.90;3.33;;;26.00;59.90;;;;;;2075494;28;20043;-69
2022/06/24 00:57:11;;;;;;;4.93;3.25;;;26.00;60.40;;;;;;2075869;28;20037;-69
2022/06/24 00:58:15;;;;;;;3.80;3.33;;;25.90;60.00;;;;;;2074880;28;20477;-69
2022/06/24 00:59:16;;;;;;;8.02;3.35;;;25.90;60.10;;;;;;2074237;28;20061;-69
2022/06/24 01:00:17;;;;;;;4.40;3.03;;;25.90;60.30;;;;;;2077543;28;20034;-69
2022/06/24 01:01:35;;;;;;;5.55;3.58;;;25.90;60.40;;;;;;2076397;28;20472;-69
2022/06/24 01:02:36;;;;;;;3.75;3.17;;;25.90;61.00;;;;;;2076781;28;20120;-69
2022/06/24 01:03:40;;;;;;;7.40;3.58;;;25.90;60.60;;;;;;2066680;28;20792;-69
2022/06/24 01:04:41;;;;;;;4.35;2.90;;;25.80;60.00;;;;;;2068027;28;20030;-69
2022/06/24 01:05:43;;;;;;;4.40;2.85;;;25.80;59.40;;;;;;2075742;28;20473;-69
2022/06/24 01:06:44;;;;;;;3.00;2.70;;;25.80;59.00;;;;;;2074444;28;20036;-69
2022/06/24 01:07:45;;;;;;;4.10;2.83;;;25.80;58.90;;;;;;2075142;28;20053;-69
2022/06/24 01:08:45;;;;;;;3.83;2.92;;;25.80;58.90;;;;;;2076572;28;20022;-69
2022/06/24 01:09:46;;;;;;;3.67;3.22;;;25.80;59.00;;;;;;2078105;28;20056;-69
2022/06/24 01:10:48;;;;;;;5.28;3.00;;;25.80;59.10;;;;;;2077134;28;20074;-69
2022/06/24 01:11:49;;;;;;;3.78;3.38;;;25.70;59.40;;;;;;2079661;28;20038;-69
2022/06/24 01:12:50;;;;;;;6.15;3.33;;;25.80;59.90;;;;;;2079262;28;20017;-69
2022/06/24 01:13:51;;;;;;;6.20;3.65;;;25.80;60.90;;;;;;2075155;28;20030;-69
2022/06/24 01:14:52;;;;;;;6.63;3.67;;;25.70;61.30;;;;;;2073083;28;20030;-69
2022/06/24 01:15:53;;;;;;;4.95;3.60;;;25.70;61.90;;;;;;2077239;28;20021;-69
2022/06/24 01:16:53;;;;;;;8.82;3.85;;;25.70;62.70;;;;;;2072971;28;20026;-69
2022/06/24 01:17:54;;;;;;;5.95;3.80;;;25.70;64.40;;;;;;2075289;28;20775;-69
2022/06/24 01:19:01;;;;;;;8.60;3.60;;;25.70;65.10;;;;;;2076860;28;20075;-69
2022/06/24 01:20:02;;;;;;;6.50;3.50;;;25.70;66.70;;;;;;2076040;28;20034;-69
2022/06/24 01:21:03;;;;;;;5.97;3.50;;;25.70;67.50;;;;;;2075039;28;20018;-70
2022/06/24 01:22:03;;;;;;;8.05;3.67;;;25.70;68.50;;;;;;2076249;28;20436;-69
2022/06/24 01:23:04;;;;;;;8.93;3.85;;;25.70;69.00;;;;;;2076544;28;20097;-70
2022/06/24 01:24:16;;;;;;;6.15;3.63;;;25.70;70.10;;;;;;2079544;28;20018;-69
2022/06/24 01:25:17;;;;;;;10.15;4.10;;;25.70;71.20;;;;;;2073827;28;20072;-69
2022/06/24 01:26:18;;;;;;;7.22;4.10;;;25.70;72.40;;;;;;2077128;28;20052;-69
2022/06/24 01:27:19;;;;;;;4.32;3.45;;;25.70;73.20;;;;;;2076175;28;20041;-69
2022/06/24 01:28:20;;;;;;;13.63;3.97;;;25.70;74.30;;;;;;2076586;28;20124;-69
2022/06/24 01:29:21;;;;;;;11.68;4.40;;;25.70;74.90;;;;;;2079634;28;20029;-69
2022/06/24 01:30:22;;;;;;;8.10;3.90;;;25.70;76.80;;;;;;2073016;28;20076;-69
2022/06/24 01:31:22;;;;;;;8.35;4.40;;;25.70;79.50;;;;;;2078343;28;20026;-70
2022/06/24 01:32:23;;;;;;;8.27;4.20;;;25.70;80.70;;;;;;2079319;28;20362;-69
2022/06/24 01:33:24;;;;;;;10.05;4.32;;;25.60;82.20;;;;;;2077071;28;20059;-69
2022/06/24 01:34:24;;;;;;;9.45;4.60;;;25.60;84.20;;;;;;2076521;28;20084;-69
2022/06/24 01:35:25;;;;;;;6.57;4.03;;;25.60;86.20;;;;;;2073769;28;20392;-69
2022/06/24 01:36:26;;;;;;;13.90;4.00;;;25.50;88.40;;;;;;2077901;28;20014;-69
2022/06/24 01:37:27;;;;;;;8.10;4.60;;;25.50;90.00;;;;;;2075224;28;20562;-69
2022/06/24 01:38:28;;;;;;;7.75;4.60;;;25.50;91.10;;;;;;2073315;28;20545;-69
2022/06/24 01:39:29;;;;;;;9.20;4.53;;;25.50;92.00;;;;;;2078582;28;20536;-69
2022/06/24 01:40:29;;;;;;;9.15;4.78;;;25.40;93.00;;;;;;2079180;28;20030;-69
2022/06/24 01:41:30;;;;;;;9.63;5.03;;;25.40;93.80;;;;;;2076165;28;20753;-69
2022/06/24 01:42:31;;;;;;;7.88;4.55;;;25.40;94.70;;;;;;2076055;28;20040;-69
2022/06/24 01:43:31;;;;;;;8.45;4.43;;;25.30;95.10;;;;;;2076866;28;20029;-69
2022/06/24 01:44:32;;;;;;;9.25;5.00;;;25.30;95.80;;;;;;2076235;28;20496;-69
2022/06/24 01:45:33;;;;;;;9.95;4.30;;;25.30;96.90;;;;;;2076621;28;20013;-69
2022/06/24 01:46:34;;;;;;;11.35;4.78;;;25.30;97.60;;;;;;2075980;28;20030;-69
2022/06/24 01:47:34;;;;;;;7.65;4.57;;;25.20;98.10;;;;;;2078965;28;20101;-69
2022/06/24 01:48:35;;;;;;;9.73;5.00;;;25.20;98.90;;;;;;2077625;28;20113;-69
2022/06/24 01:49:48;;;;;;;11.57;4.80;;;25.20;99.60;;;;;;2075164;28;20029;-69
2022/06/24 01:50:48;;;;;;;7.00;4.85;;;25.20;99.90;;;;;;2076365;28;20147;-70
2022/06/24 01:51:52;;;;;;;8.32;4.55;;;25.20;99.90;;;;;;2066901;28;20173;-69
2022/06/24 01:52:52;;;;;;;9.40;5.38;;;25.10;99.90;;;;;;2066807;28;20751;-69
2022/06/24 01:53:53;;;;;;;16.02;5.43;;;25.10;99.90;;;;;;2077140;28;20067;-69
2022/06/24 01:54:53;;;;;;;12.45;5.40;;;25.10;99.90;;;;;;2078075;28;20017;-69
2022/06/24 01:55:54;;;;;;;10.57;4.75;;;25.10;99.90;;;;;;2077151;28;20014;-69
2022/06/24 01:56:55;;;;;;;10.45;5.55;;;25.10;99.90;;;;;;2077673;28;20010;-69
2022/06/24 01:57:55;;;;;;;9.20;4.80;;;25.00;99.90;;;;;;2076144;28;20100;-69
2022/06/24 01:58:56;;;;;;;8.38;4.85;;;25.00;99.90;;;;;;2078488;28;20018;-69
2022/06/24 01:59:59;;;;;;;8.13;5.65;;;25.00;99.90;;;;;;2078471;28;20447;-69
2022/06/24 02:00:59;;;;;;;12.52;4.95;;;25.00;99.90;;;;;;2074769;28;20484;-69
2022/06/24 02:02:00;;;;;;;9.77;5.05;;;24.90;99.90;;;;;;2079358;28;21081;-69
2022/06/24 02:03:05;;;;;;;6.78;5.13;;;24.90;99.90;;;;;;2076314;28;20029;-69
2022/06/24 02:04:06;;;;;;;11.00;5.15;;;24.90;99.90;;;;;;2076522;28;20083;-69
2022/06/24 02:05:08;;;;;;;9.93;5.32;;;24.80;99.90;;;;;;2079251;28;20021;-69
2022/06/24 02:06:10;;;;;;;10.43;5.13;;;24.80;99.90;;;;;;2077038;28;20018;-69
2022/06/24 02:07:10;;;;;;;9.95;5.20;;;24.80;99.90;;;;;;2075831;28;20094;-69
2022/06/24 02:08:11;;;;;;;9.60;5.45;;;24.80;99.90;;;;;;2078646;28;20079;-69
2022/06/24 02:09:11;;;;;;;9.77;5.30;;;24.80;99.90;;;;;;2076123;28;20478;-69
2022/06/24 02:14:13;;;;;;;7.78;5.15;;;24.60;99.90;;;;;;2075957;28;20022;-69
2022/06/24 02:15:13;;;;;;;10.73;5.57;;;24.60;99.90;;;;;;2073562;28;20600;-69
2022/06/24 02:16:15;;;;;;;7.30;4.85;;;24.50;99.90;;;;;;2076278;28;20436;-69
2022/06/24 02:17:16;;;;;;;11.52;5.57;;;24.50;99.90;;;;;;2076565;28;20108;-70
2022/06/24 02:18:16;;;;;;;11.30;5.43;;;24.50;99.90;;;;;;2077970;28;20670;-69
2022/06/24 02:19:17;;;;;;;9.88;6.05;;;24.50;99.90;;;;;;2077366;28;20083;-70
2022/06/24 02:20:18;;;;;;;12.32;5.32;;;24.50;99.90;;;;;;2076100;28;20040;-69
2022/06/24 02:21:20;;;;;;;9.32;5.90;;;24.40;99.90;;;;;;2074965;28;20065;-69
2022/06/24 02:22:21;;;;;;;9.10;5.63;;;24.40;99.90;;;;;;2076348;28;20111;-69
2022/06/24 02:23:22;;;;;;;11.90;6.45;;;24.40;99.90;;;;;;2077608;28;20079;-69
2022/06/24 02:24:23;;;;;;;12.60;5.70;;;24.40;99.90;;;;;;2078553;28;20025;-69
2022/06/24 02:25:23;;;;;;;13.77;6.68;;;24.30;99.90;;;;;;2075049;28;20054;-69
2022/06/24 02:26:25;;;;;;;10.38;5.78;;;24.30;99.90;;;;;;2077114;28;20548;-69
2022/06/24 02:27:26;;;;;;;10.32;6.18;;;24.30;99.90;;;;;;2076213;28;20026;-69
2022/06/24 02:28:27;;;;;;;11.32;4.82;;;24.30;99.90;;;;;;2077734;28;20110;-69
2022/06/24 02:29:27;;;;;;;6.35;4.90;;;24.20;99.90;;;;;;2077140;28;20060;-69
2022/06/24 02:30:28;;;;;;;9.48;6.15;;;24.20;99.90;;;;;;2077857;28;20083;-69
2022/06/24 02:31:28;;;;;;;11.02;6.03;;;24.20;99.90;;;;;;2077439;28;20105;-69
2022/06/24 02:32:29;;;;;;;8.27;5.65;;;24.20;99.90;;;;;;2076637;28;20084;-69
2022/06/24 02:33:30;;;;;;;13.38;6.63;;;24.20;99.90;;;;;;2076201;28;20034;-69
2022/06/24 02:34:30;;;;;;;10.27;6.38;;;24.20;99.90;;;;;;2076653;28;20105;-69
2022/06/24 02:35:31;;;;;;;10.70;6.20;;;24.20;99.90;;;;;;2075891;28;20018;-69
2022/06/24 02:36:32;;;;;;;9.23;6.53;;;24.20;99.90;;;;;;2077503;28;20018;-69
2022/06/24 02:37:32;;;;;;;8.88;6.35;;;24.10;99.90;;;;;;2073768;28;20037;-69
2022/06/24 02:38:34;;;;;;;10.15;6.10;;;24.10;99.90;;;;;;2075773;28;20033;-69
2022/06/24 02:39:34;;;;;;;8.50;6.05;;;24.10;99.90;;;;;;2078319;28;20028;-69
2022/06/24 02:40:51;;;;;;;9.48;6.05;;;24.10;99.90;;;;;;2075678;28;20104;-69
2022/06/24 02:41:51;;;;;;;15.82;6.13;;;24.10;99.90;;;;;;2077757;28;20026;-69
2022/06/24 02:42:57;;;;;;;11.13;6.47;;;24.10;99.90;;;;;;2078362;28;20477;-69
2022/06/24 02:43:57;;;;;;;8.98;5.60;;;24.10;99.90;;;;;;2077836;28;20490;-69
2022/06/24 02:44:58;;;;;;;11.13;5.85;;;24.10;99.90;;;;;;2077650;28;20025;-69
2022/06/24 02:46:01;;;;;;;9.63;5.82;;;24.00;99.90;;;;;;2078602;28;20512;-69
2022/06/24 02:47:01;;;;;;;7.57;5.70;;;24.10;99.90;;;;;;2077765;28;20373;-69
2022/06/24 02:48:03;;;;;;;9.55;5.70;;;24.10;99.90;;;;;;2075151;28;20025;-69
2022/06/24 02:49:04;;;;;;;11.00;6.55;;;24.10;99.90;;;;;;2074216;28;20045;-69
2022/06/24 02:50:05;;;;;;;9.20;5.20;;;24.10;99.90;;;;;;2075604;28;20030;-69
2022/06/24 02:51:07;;;;;;;8.98;5.25;;;24.10;99.90;;;;;;2076176;28;20140;-69
2022/06/24 02:52:08;;;;;;;8.20;4.72;;;24.10;99.90;;;;;;2077797;28;20056;-69
2022/06/24 02:53:10;;;;;;;12.38;5.43;;;24.10;99.90;;;;;;2075747;28;20504;-69
2022/06/24 02:54:11;;;;;;;8.73;5.63;;;24.10;99.90;;;;;;2078720;28;20024;-69
2022/06/24 02:55:11;;;;;;;12.18;5.03;;;24.10;99.90;;;;;;2075830;28;20028;-69
2022/06/24 02:56:14;;;;;;;8.50;4.82;;;24.10;99.90;;;;;;2073626;28;20025;-69
2022/06/24 02:57:14;;;;;;;12.93;4.78;;;24.20;99.90;;;;;;2066844;28;20030;-69
2022/06/24 02:58:16;;;;;;;8.40;4.68;;;24.20;99.90;;;;;;2068310;28;20034;-69
2022/06/24 02:59:16;;;;;;;8.88;5.07;;;24.20;99.90;;;;;;2073601;28;20092;-69
2022/06/24 03:00:17;;;;;;;8.65;5.00;;;24.10;99.90;;;;;;2075858;28;20109;-69
2022/06/24 03:01:18;;;;;;;9.85;5.47;;;24.20;99.90;;;;;;2074915;28;20045;-69
2022/06/24 03:02:18;;;;;;;8.13;4.78;;;24.20;99.90;;;;;;2075427;28;20135;-69
2022/06/24 03:03:21;;;;;;;10.77;5.20;;;24.20;99.90;;;;;;2076882;28;20033;-69
2022/06/24 03:04:21;;;;;;;11.60;5.53;;;24.20;99.90;;;;;;2076039;28;20059;-69
2022/06/24 03:05:22;;;;;;;7.90;5.03;;;24.10;99.90;;;;;;2072870;28;20566;-69
2022/06/24 03:06:23;;;;;;;9.50;4.60;;;24.20;99.90;;;;;;2073597;28;20109;-69
2022/06/24 03:07:23;;;;;;;12.23;5.00;;;24.10;99.90;;;;;;2075261;28;20018;-69
2022/06/24 03:08:26;;;;;;;9.23;5.53;;;24.20;99.90;;;;;;2074654;28;20405;-69
2022/06/24 03:09:26;;;;;;;9.73;5.20;;;24.20;99.90;;;;;;2073874;28;20018;-69
2022/06/24 03:10:27;;;;;;;10.15;5.28;;;24.20;99.90;;;;;;2074407;28;20029;-69
2022/06/24 03:11:28;;;;;;;8.60;5.15;;;24.20;99.90;;;;;;2075174;28;20084;-69
2022/06/24 03:12:28;;;;;;;11.27;4.63;;;24.20;99.90;;;;;;2075380;28;20040;-69
2022/06/24 03:13:29;;;;;;;7.68;4.72;;;24.20;99.90;;;;;;2077340;28;20030;-69
2022/06/24 03:14:29;;;;;;;7.20;4.50;;;24.20;99.90;;;;;;2078754;28;20116;-69
2022/06/24 03:15:30;;;;;;;13.05;5.53;;;24.20;99.90;;;;;;2075318;28;20026;-69
2022/06/24 03:16:31;;;;;;;10.48;5.00;;;24.20;99.90;;;;;;2073522;28;20101;-69
2022/06/24 03:17:32;;;;;;;10.63;5.13;;;24.20;99.90;;;;;;2075039;28;20030;-70
2022/06/24 03:18:32;;;;;;;7.80;4.47;;;24.20;99.90;;;;;;2076363;28;20030;-69
2022/06/24 03:19:33;;;;;;;8.50;5.72;;;24.20;99.90;;;;;;2073640;28;20214;-69
2022/06/24 03:20:33;;;;;;;11.45;6.55;;;24.20;99.90;;;;;;2075353;28;20032;-69
2022/06/24 03:21:34;;;;;;;9.18;5.90;;;24.20;99.90;;;;;;2076243;28;20118;-69
2022/06/24 03:22:35;;;;;;;8.43;5.78;;;24.20;99.90;;;;;;2077613;28;20640;-69
2022/06/24 03:23:36;;;;;;;10.20;6.25;;;24.20;99.90;;;;;;2077572;28;20056;-69
2022/06/24 03:24:36;;;;;;;12.35;6.00;;;24.10;99.90;;;;;;2078264;28;20033;-69
2022/06/24 03:25:37;;;;;;;7.75;5.30;;;24.10;99.90;;;;;;2073414;28;20456;-69
2022/06/24 03:26:38;;;;;;;9.77;5.35;;;24.10;99.90;;;;;;2075841;28;20030;-69
2022/06/24 03:27:39;;;;;;;7.78;4.70;;;24.10;99.90;;;;;;2075999;28;20473;-69
2022/06/24 03:28:40;;;;;;;8.80;4.72;;;24.10;99.90;;;;;;2075711;28;20393;-69
2022/06/24 03:29:40;;;;;;;7.45;4.95;;;24.10;99.90;;;;;;2076622;28;20019;-69
2022/06/24 03:30:41;;;;;;;6.93;4.22;;;24.00;99.90;;;;;;2075689;28;20030;-69
2022/06/24 03:31:41;;;;;;;8.60;5.20;;;24.00;99.90;;;;;;2077773;28;20017;-69
2022/06/24 03:32:42;;;;;;;9.27;5.28;;;24.00;99.90;;;;;;2076668;28;20101;-69
2022/06/24 03:33:43;;;;;;;8.05;3.92;;;24.00;99.90;;;;;;2076867;28;20614;-69
2022/06/24 03:34:44;;;;;;;8.02;4.95;;;24.00;99.90;;;;;;2073184;28;21298;-69
2022/06/24 03:35:44;;;;;;;8.52;4.80;;;24.00;99.90;;;;;;2075314;28;20079;-69
2022/06/24 03:36:46;;;;;;;8.95;5.22;;;24.00;99.90;;;;;;2074892;28;20120;-69
2022/06/24 03:37:46;;;;;;;9.50;5.00;;;24.00;99.90;;;;;;2075323;28;20033;-69
2022/06/24 03:38:47;;;;;;;8.43;4.85;;;24.00;99.90;;;;;;2076054;28;20034;-70
2022/06/24 03:39:47;;;;;;;13.40;5.85;;;24.00;99.90;;;;;;2077258;28;20052;-69
2022/06/24 03:40:48;;;;;;;8.98;5.50;;;24.00;99.90;;;;;;2075801;28;20048;-69
2022/06/24 03:41:49;;;;;;;9.35;5.65;;;24.00;99.90;;;;;;2077378;28;20029;-69
2022/06/24 03:42:49;;;;;;;9.05;5.45;;;24.00;99.90;;;;;;2076524;28;20057;-69
2022/06/24 03:43:50;;;;;;;8.07;4.68;;;24.00;99.90;;;;;;2078023;28;20100;-69
2022/06/24 03:44:51;;;;;;;9.68;6.30;;;23.90;99.90;;;;;;2077717;28;20026;-69
2022/06/24 03:46:02;;;;;;;8.05;5.78;;;23.90;99.90;;;;;;2077185;28;20025;-69
2022/06/24 03:47:03;;;;;;;11.77;6.22;;;23.90;99.90;;;;;;2077048;28;20033;-69
2022/06/24 03:48:04;;;;;;;10.93;6.38;;;23.90;99.90;;;;;;2076793;28;20029;-69
2022/06/24 03:49:05;;;;;;;9.57;5.95;;;23.90;99.90;;;;;;2074950;28;20043;-69
2022/06/24 03:50:06;;;;;;;8.57;6.38;;;23.90;99.90;;;;;;2076045;28;20024;-69
2022/06/24 03:51:06;;;;;;;8.80;6.40;;;23.90;99.90;;;;;;2076520;28;20577;-69
2022/06/24 03:52:08;;;;;;;10.35;6.20;;;23.90;99.90;;;;;;2076316;28;20093;-69
2022/06/24 03:53:08;;;;;;;11.25;6.57;;;23.90;99.90;;;;;;2076509;28;20020;-69
2022/06/24 03:54:09;;;;;;;11.60;6.88;;;23.80;99.90;;;;;;2079099;28;20028;-69
2022/06/24 03:55:09;;;;;;;13.65;7.10;;;23.90;99.90;;;;;;2074076;28;20028;-69
2022/06/24 03:56:10;;;;;;;12.13;6.80;;;23.80;99.90;;;;;;2076871;28;20037;-69
2022/06/24 03:57:11;;;;;;;10.48;6.50;;;23.80;99.90;;;;;;2077825;28;20066;-69
2022/06/24 03:58:12;;;;;;;7.85;6.18;;;23.80;99.90;;;;;;2074488;28;20477;-69
2022/06/24 03:59:12;;;;;;;7.38;6.38;;;23.80;99.90;;;;;;2076561;28;20473;-69
2022/06/24 04:00:13;;;;;;;8.40;6.05;;;23.80;99.90;;;;;;2077701;28;20083;-69
2022/06/24 04:01:14;;;;;;;7.38;6.13;;;23.80;99.90;;;;;;2077799;28;20648;-69
2022/06/24 04:02:14;;;;;;;8.23;6.35;;;23.80;99.90;;;;;;2079985;28;20143;-69
2022/06/24 04:03:15;;;;;;;8.63;6.22;;;23.80;99.90;;;;;;2077100;28;20036;-69
2022/06/24 04:04:16;;;;;;;13.68;7.00;;;23.80;99.90;;;;;;2076691;28;20029;-69
2022/06/24 04:05:16;;;;;;;9.10;6.10;;;23.80;99.90;;;;;;2078121;28;20041;-69
2022/06/24 04:06:17;;;;;;;11.23;6.15;;;23.80;99.90;;;;;;2078660;28;20105;-69
2022/06/24 04:07:18;;;;;;;7.05;5.63;;;23.70;99.90;;;;;;2078395;28;20118;-69
2022/06/24 04:08:18;;;;;;;10.02;5.55;;;23.80;99.90;;;;;;2077796;28;20021;-69
2022/06/24 04:09:19;;;;;;;6.07;5.40;;;23.70;99.90;;;;;;2078678;28;20037;-69
2022/06/24 04:10:20;;;;;;;8.35;6.00;;;23.80;99.90;;;;;;2079894;28;20453;-69
2022/06/24 04:11:20;;;;;;;8.38;5.25;;;23.70;99.90;;;;;;2078703;28;20510;-69
2022/06/24 04:12:21;;;;;;;8.45;6.53;;;23.70;99.90;;;;;;2077719;28;20046;-69
2022/06/24 04:13:22;;;;;;;12.23;5.80;;;23.80;99.90;;;;;;2079388;28;20025;-69
2022/06/24 04:15:51;;;;;;;10.95;5.55;;;23.80;99.90;;;;;;2076955;28;20029;-69
2022/06/24 04:16:51;;;;;;;6.47;5.88;;;23.70;99.90;;;;;;2079533;28;20026;-69
2022/06/24 04:17:52;;;;;;;9.90;6.47;;;23.70;99.90;;;;;;2076862;28;20029;-69
2022/06/24 04:18:53;;;;;;;10.38;6.70;;;23.70;99.90;;;;;;2078112;28;20105;-69
2022/06/24 04:19:53;;;;;;;7.95;5.93;;;23.70;99.90;;;;;;2080449;28;20106;-69
2022/06/24 04:20:54;;;;;;;8.60;6.00;;;23.70;99.90;;;;;;2075643;28;20022;-69
2022/06/24 04:21:55;;;;;;;10.77;6.70;;;23.70;99.90;;;;;;2077364;28;20033;-69
2022/06/24 04:22:55;;;;;;;11.50;6.40;;;23.70;99.90;;;;;;2077263;28;20400;-69
2022/06/24 04:23:56;;;;;;;7.95;5.60;;;23.80;99.90;;;;;;2075917;28;20480;-69
2022/06/24 04:24:57;;;;;;;7.20;5.38;;;23.70;99.90;;;;;;2077295;28;20598;-69
2022/06/24 04:25:57;;;;;;;8.88;6.50;;;23.70;99.90;;;;;;2075860;28;20101;-69
2022/06/24 04:26:58;;;;;;;10.63;6.50;;;23.70;99.90;;;;;;2079124;28;20091;-68
2022/06/24 04:27:59;;;;;;;9.88;5.97;;;23.70;99.90;;;;;;2079397;28;20021;-68
2022/06/24 04:29:00;;;;;;;10.25;6.15;;;23.70;99.90;;;;;;2078496;28;20030;-68
2022/06/24 04:30:02;;;;;;;12.45;6.40;;;23.70;99.90;;;;;;2075058;28;20461;-68
2022/06/24 04:31:03;;;;;;;12.45;6.20;;;23.70;99.90;;;;;;2075780;28;20097;-68
2022/06/24 04:32:04;;;;;;;8.15;6.07;;;23.70;99.90;;;;;;2078045;28;20087;-68
2022/06/24 04:33:05;;;;;;;10.13;7.38;;;23.70;99.90;;;;;;2077039;28;20029;-68
2022/06/24 04:34:06;;;;;;;11.93;6.78;;;23.70;99.90;;;;;;2077784;28;20036;-69
2022/06/24 04:35:08;;;;;;;10.77;6.65;;;23.70;99.90;;;;;;2073951;28;20532;-69
2022/06/24 04:36:13;;;;;;;10.13;7.00;;;23.70;99.90;;;;;;2074943;28;20030;-69
2022/06/24 04:37:13;;;;;;;10.25;6.00;;;23.70;99.90;;;;;;2076218;28;20085;-69
2022/06/24 04:38:15;;;;;;;12.32;7.43;;;23.70;99.90;;;;;;2075287;28;20889;-69
2022/06/24 04:39:16;;;;;;;10.23;7.20;;;23.70;99.90;;;;;;2076152;28;20025;-69
2022/06/24 04:40:16;;;;;;;10.63;6.80;;;23.70;99.90;;;;;;2078819;28;20147;-69
2022/06/24 04:41:17;;;;;;;8.40;7.13;;;23.70;99.90;;;;;;2075680;28;20026;-68
2022/06/24 04:42:17;;;;;;;8.85;7.00;;;23.70;99.90;;;;;;2075185;28;20500;-69
2022/06/24 04:43:18;;;;;;;7.78;6.10;;;23.70;99.90;;;;;;2077463;28;20532;-69
2022/06/24 04:44:19;;;;;;;9.02;6.32;;;23.70;99.90;;;;;;2077054;28;20026;-69
2022/06/24 04:45:20;;;;;;;7.40;6.72;;;23.60;99.90;;;;;;2076181;28;20032;-69
2022/06/24 04:46:21;;;;;;;11.02;7.05;;;23.60;99.90;;;;;;2078586;28;20022;-69
2022/06/24 04:47:22;;;;;;;10.27;7.25;;;23.60;99.90;;;;;;2076473;28;20030;-69
2022/06/24 04:48:23;;;;;;;7.40;5.90;;;23.60;99.90;;;;;;2077462;28;20026;-69
2022/06/24 04:49:24;;;;;;;9.20;6.97;;;23.60;99.90;;;;;;2078094;28;20116;-69
2022/06/24 04:50:24;;;;;;;9.00;6.25;;;23.60;99.90;;;;;;2078758;28;20017;-70
2022/06/24 04:51:27;;;;;;;10.65;6.53;;;23.60;99.90;;;;;;2077521;28;20021;-70
2022/06/24 04:52:28;;;;;;;9.20;5.95;;;23.60;99.90;;;;;;2074718;28;20037;-70
2022/06/24 04:53:29;;;;;;;6.80;5.28;;;23.60;99.90;;;;;;2076171;28;20034;-70
2022/06/24 04:54:30;;;;;;;5.25;4.45;;;23.50;99.90;;;;;;2077441;28;20025;-70
2022/06/24 04:55:31;;;;;;;8.65;6.07;;;23.50;99.90;;;;;;2076093;28;20049;-70
2022/06/24 04:56:31;;;;;;;9.13;5.68;;;23.50;99.90;;;;;;2078689;28;20503;-70
2022/06/24 04:57:32;;;;;;;10.60;5.55;;;23.50;99.90;;;;;;2076678;28;20049;-70
2022/06/24 04:58:33;;;;;;;6.70;4.97;;;23.50;99.90;;;;;;2074662;28;20080;-70
2022/06/24 04:59:33;;;;;;;6.40;4.97;;;23.50;99.90;;;;;;2077747;28;20080;-70
2022/06/24 05:00:34;;;;;;;6.50;5.13;;;23.40;99.90;;;;;;2075629;28;20022;-70
2022/06/24 05:01:34;;;;;;;8.55;5.43;;;23.40;99.90;;;;;;2077133;28;20037;-70
2022/06/24 05:02:36;;;;;;;8.70;5.10;;;23.50;99.90;;;;;;2076732;28;20049;-69
2022/06/24 05:03:36;;;;;;;11.02;5.47;;;23.50;99.90;;;;;;2075826;28;20025;-69
2022/06/24 05:04:37;;;;;;;10.25;5.25;;;23.40;99.90;;;;;;2075823;28;20022;-69
2022/06/24 05:05:38;;;;;;;8.52;5.68;;;23.40;99.90;;;;;;2074330;28;20038;-69
2022/06/24 05:06:40;;;;;;;8.30;5.00;;;23.40;99.90;;;;;;2076941;28;20100;-69
2022/06/24 05:07:41;;;;;;;7.32;4.95;;;23.40;99.90;;;;;;2077749;28;20643;-69
2022/06/24 05:08:43;;;;;;;10.93;7.07;;;23.40;99.90;;;;;;2075758;28;20492;-69
2022/06/24 05:09:45;;;;;;;8.70;5.82;;;23.40;99.90;;;;;;2079643;28;20026;-69
2022/06/24 05:10:45;;;;;;;8.75;5.65;;;23.40;99.90;;;;;;2077193;28;20374;-69
2022/06/24 05:11:48;;;;;;;8.75;6.72;;;23.40;99.90;;;;;;2074877;28;20017;-69
2022/06/24 05:12:49;;;;;;;7.13;6.07;;;23.40;99.90;;;;;;2079114;28;20031;-70
2022/06/24 05:13:50;;;;;;;7.20;5.13;;;23.40;99.90;;;;;;2076315;28;20013;-70
2022/06/24 05:14:51;;;;;;;8.02;5.47;;;23.40;99.90;;;;;;2074030;28;20060;-69
2022/06/24 05:15:51;;;;;;;7.43;6.43;;;23.40;99.90;;;;;;2076857;28;20033;-69
2022/06/24 05:16:52;;;;;;;10.38;6.35;;;23.40;99.90;;;;;;2078248;28;20026;-69
2022/06/24 05:17:52;;;;;;;7.15;6.55;;;23.40;99.90;;;;;;2077761;28;20029;-69
2022/06/24 05:18:53;;;;;;;6.22;4.70;;;23.40;99.90;;;;;;2072816;28;20397;-69
2022/06/24 05:19:54;;;;;;;7.70;6.47;;;23.40;99.90;;;;;;2076756;28;20026;-69
2022/06/24 05:20:54;;;;;;;9.23;7.43;;;23.40;99.90;;;;;;2074718;28;20049;-70
2022/06/24 05:21:56;;;;;;;9.15;7.15;;;23.40;99.90;;;;;;2076701;28;20037;-69
2022/06/24 05:22:56;;;;;;;8.60;7.68;;;23.40;99.90;;;;;;2075704;28;20022;-69
2022/06/24 05:23:57;;;;;;;9.23;7.78;;;23.40;99.90;;;;;;2078121;28;20029;-78
2022/06/24 05:24:57;;;;;;;8.52;7.60;;;23.40;99.90;;;;;;2066899;28;20708;-69
2022/06/24 05:25:58;;;;;;;11.52;7.93;;;23.40;99.90;;;;;;2068372;28;20026;-69